sensor_id;sensor_type;location;lat;lon;timestamp;P1;durP1;ratioP1;P2;durP2;ratioP2
26582;SDS011;14230;45.382;10.998;2023-05-07T00:00:46;23.63;;;20.27;;
26582;SDS011;14230;45.382;10.998;2023-05-07T00:03:13;25.45;;;20.95;;
26582;SDS011;14230;45.382;10.998;2023-05-07T00:05:42;24.50;;;20.08;;
26582;SDS011;14230;45.382;10.998;2023-05-07T00:08:09;24.42;;;19.70;;
26582;SDS011;14230;45.382;10.998;2023-05-07T00:10:37;21.40;;;18.52;;
26582;SDS011;14230;45.382;10.998;2023-05-07T00:13:04;24.95;;;20.33;;
26582;SDS011;14230;45.382;10.998;2023-05-07T00:15:31;22.38;;;18.60;;
26582;SDS011;14230;45.382;10.998;2023-05-07T00:17:59;20.67;;;17.83;;
26582;SDS011;14230;45.382;10.998;2023-05-07T00:20:26;27.05;;;18.45;;
26582;SDS011;14230;45.382;10.998;2023-05-07T00:22:54;26.20;;;17.52;;
26582;SDS011;14230;45.382;10.998;2023-05-07T00:25:21;24.75;;;19.58;;
26582;SDS011;14230;45.382;10.998;2023-05-07T00:27:49;23.77;;;21.20;;
26582;SDS011;14230;45.382;10.998;2023-05-07T00:30:16;24.88;;;21.98;;
26582;SDS011;14230;45.382;10.998;2023-05-07T00:32:44;27.25;;;20.40;;
26582;SDS011;14230;45.382;10.998;2023-05-07T00:37:43;32.38;;;24.00;;
26582;SDS011;14230;45.382;10.998;2023-05-07T00:40:11;29.77;;;23.83;;
26582;SDS011;14230;45.382;10.998;2023-05-07T00:42:39;27.27;;;23.42;;
26582;SDS011;14230;45.382;10.998;2023-05-07T00:45:06;26.23;;;21.80;;
26582;SDS011;14230;45.382;10.998;2023-05-07T00:47:34;27.67;;;22.92;;
26582;SDS011;14230;45.382;10.998;2023-05-07T00:50:03;26.48;;;21.95;;
26582;SDS011;14230;45.382;10.998;2023-05-07T00:52:34;25.67;;;22.90;;
26582;SDS011;14230;45.382;10.998;2023-05-07T00:55:04;24.65;;;20.85;;
26582;SDS011;14230;45.382;10.998;2023-05-07T00:57:37;28.80;;;21.33;;
26582;SDS011;14230;45.382;10.998;2023-05-07T01:00:08;27.52;;;21.63;;
26582;SDS011;14230;45.382;10.998;2023-05-07T01:02:37;27.25;;;21.85;;
26582;SDS011;14230;45.382;10.998;2023-05-07T01:05:05;24.52;;;20.67;;
26582;SDS011;14230;45.382;10.998;2023-05-07T01:07:36;32.95;;;21.38;;
26582;SDS011;14230;45.382;10.998;2023-05-07T01:10:05;26.42;;;20.63;;
26582;SDS011;14230;45.382;10.998;2023-05-07T01:12:34;25.90;;;21.98;;
26582;SDS011;14230;45.382;10.998;2023-05-07T01:15:03;28.13;;;21.77;;
26582;SDS011;14230;45.382;10.998;2023-05-07T01:17:33;27.50;;;22.13;;
26582;SDS011;14230;45.382;10.998;2023-05-07T01:20:07;24.00;;;21.45;;
26582;SDS011;14230;45.382;10.998;2023-05-07T01:22:37;27.13;;;23.17;;
26582;SDS011;14230;45.382;10.998;2023-05-07T01:25:06;31.40;;;22.83;;
26582;SDS011;14230;45.382;10.998;2023-05-07T01:27:38;25.77;;;22.13;;
26582;SDS011;14230;45.382;10.998;2023-05-07T01:30:06;28.33;;;22.30;;
26582;SDS011;14230;45.382;10.998;2023-05-07T01:35:09;26.77;;;22.67;;
26582;SDS011;14230;45.382;10.998;2023-05-07T01:37:39;27.55;;;21.98;;
26582;SDS011;14230;45.382;10.998;2023-05-07T01:40:07;27.85;;;23.02;;
26582;SDS011;14230;45.382;10.998;2023-05-07T01:42:35;29.15;;;23.13;;
26582;SDS011;14230;45.382;10.998;2023-05-07T01:45:04;24.95;;;22.23;;
26582;SDS011;14230;45.382;10.998;2023-05-07T01:47:32;28.75;;;24.88;;
26582;SDS011;14230;45.382;10.998;2023-05-07T01:50:00;31.00;;;25.90;;
26582;SDS011;14230;45.382;10.998;2023-05-07T01:52:28;27.20;;;24.23;;
26582;SDS011;14230;45.382;10.998;2023-05-07T01:54:55;28.10;;;23.73;;
26582;SDS011;14230;45.382;10.998;2023-05-07T01:57:23;32.85;;;26.60;;
26582;SDS011;14230;45.382;10.998;2023-05-07T01:59:50;30.05;;;26.10;;
26582;SDS011;14230;45.382;10.998;2023-05-07T02:02:18;31.00;;;24.85;;
26582;SDS011;14230;45.382;10.998;2023-05-07T02:04:46;30.05;;;23.98;;
26582;SDS011;14230;45.382;10.998;2023-05-07T02:07:14;31.70;;;23.88;;
26582;SDS011;14230;45.382;10.998;2023-05-07T02:09:42;30.45;;;25.90;;
26582;SDS011;14230;45.382;10.998;2023-05-07T02:12:10;29.30;;;23.10;;
26582;SDS011;14230;45.382;10.998;2023-05-07T02:14:37;26.38;;;23.50;;
26582;SDS011;14230;45.382;10.998;2023-05-07T02:17:05;28.17;;;22.67;;
26582;SDS011;14230;45.382;10.998;2023-05-07T02:19:33;32.45;;;25.48;;
26582;SDS011;14230;45.382;10.998;2023-05-07T02:22:01;28.17;;;24.58;;
26582;SDS011;14230;45.382;10.998;2023-05-07T02:24:30;32.03;;;25.08;;
26582;SDS011;14230;45.382;10.998;2023-05-07T02:26:57;32.25;;;26.73;;
26582;SDS011;14230;45.382;10.998;2023-05-07T02:29:25;31.58;;;25.77;;
26582;SDS011;14230;45.382;10.998;2023-05-07T02:31:53;34.63;;;25.83;;
26582;SDS011;14230;45.382;10.998;2023-05-07T02:34:21;33.78;;;25.67;;
26582;SDS011;14230;45.382;10.998;2023-05-07T02:36:48;32.55;;;26.20;;
26582;SDS011;14230;45.382;10.998;2023-05-07T02:39:19;39.88;;;25.27;;
26582;SDS011;14230;45.382;10.998;2023-05-07T02:41:47;30.83;;;25.98;;
26582;SDS011;14230;45.382;10.998;2023-05-07T02:44:14;30.35;;;26.33;;
26582;SDS011;14230;45.382;10.998;2023-05-07T02:46:43;33.05;;;27.88;;
26582;SDS011;14230;45.382;10.998;2023-05-07T02:49:12;30.88;;;27.45;;
26582;SDS011;14230;45.382;10.998;2023-05-07T02:51:39;37.20;;;26.65;;
26582;SDS011;14230;45.382;10.998;2023-05-07T02:54:12;35.63;;;27.08;;
26582;SDS011;14230;45.382;10.998;2023-05-07T02:56:39;32.17;;;26.58;;
26582;SDS011;14230;45.382;10.998;2023-05-07T02:59:07;36.28;;;27.50;;
26582;SDS011;14230;45.382;10.998;2023-05-07T03:01:38;37.40;;;25.67;;
26582;SDS011;14230;45.382;10.998;2023-05-07T03:04:07;32.83;;;26.73;;
26582;SDS011;14230;45.382;10.998;2023-05-07T03:06:35;31.15;;;25.85;;
26582;SDS011;14230;45.382;10.998;2023-05-07T03:09:02;31.98;;;27.35;;
26582;SDS011;14230;45.382;10.998;2023-05-07T03:11:30;32.13;;;26.60;;
26582;SDS011;14230;45.382;10.998;2023-05-07T03:13:57;34.65;;;28.30;;
26582;SDS011;14230;45.382;10.998;2023-05-07T03:16:25;37.72;;;28.88;;
26582;SDS011;14230;45.382;10.998;2023-05-07T03:18:53;33.55;;;29.10;;
26582;SDS011;14230;45.382;10.998;2023-05-07T03:21:20;36.28;;;29.67;;
26582;SDS011;14230;45.382;10.998;2023-05-07T03:23:48;33.75;;;29.40;;
26582;SDS011;14230;45.382;10.998;2023-05-07T03:26:16;33.10;;;28.45;;
26582;SDS011;14230;45.382;10.998;2023-05-07T03:28:44;34.80;;;28.77;;
26582;SDS011;14230;45.382;10.998;2023-05-07T03:31:14;33.38;;;27.35;;
26582;SDS011;14230;45.382;10.998;2023-05-07T03:33:51;31.88;;;28.00;;
26582;SDS011;14230;45.382;10.998;2023-05-07T03:36:20;35.55;;;28.02;;
26582;SDS011;14230;45.382;10.998;2023-05-07T03:38:48;33.22;;;28.48;;
26582;SDS011;14230;45.382;10.998;2023-05-07T03:41:19;35.30;;;29.67;;
26582;SDS011;14230;45.382;10.998;2023-05-07T03:43:47;39.20;;;30.73;;
26582;SDS011;14230;45.382;10.998;2023-05-07T03:46:15;33.55;;;29.95;;
26582;SDS011;14230;45.382;10.998;2023-05-07T03:48:43;34.58;;;29.05;;
26582;SDS011;14230;45.382;10.998;2023-05-07T03:51:12;33.88;;;28.75;;
26582;SDS011;14230;45.382;10.998;2023-05-07T03:53:40;36.08;;;29.23;;
26582;SDS011;14230;45.382;10.998;2023-05-07T03:56:07;39.25;;;28.40;;
26582;SDS011;14230;45.382;10.998;2023-05-07T03:58:38;35.65;;;28.77;;
26582;SDS011;14230;45.382;10.998;2023-05-07T04:01:08;33.67;;;27.70;;
26582;SDS011;14230;45.382;10.998;2023-05-07T04:03:36;37.15;;;28.00;;
26582;SDS011;14230;45.382;10.998;2023-05-07T04:06:04;39.03;;;28.73;;
26582;SDS011;14230;45.382;10.998;2023-05-07T04:08:34;34.10;;;28.00;;
26582;SDS011;14230;45.382;10.998;2023-05-07T04:11:02;35.10;;;27.15;;
26582;SDS011;14230;45.382;10.998;2023-05-07T04:13:32;35.25;;;27.98;;
26582;SDS011;14230;45.382;10.998;2023-05-07T04:16:02;34.35;;;27.88;;
26582;SDS011;14230;45.382;10.998;2023-05-07T04:18:31;33.03;;;26.88;;
26582;SDS011;14230;45.382;10.998;2023-05-07T04:20:59;32.17;;;28.35;;
26582;SDS011;14230;45.382;10.998;2023-05-07T04:23:27;31.67;;;26.38;;
26582;SDS011;14230;45.382;10.998;2023-05-07T04:25:56;30.20;;;26.92;;
26582;SDS011;14230;45.382;10.998;2023-05-07T04:28:30;35.33;;;27.80;;
26582;SDS011;14230;45.382;10.998;2023-05-07T04:30:58;31.08;;;27.02;;
26582;SDS011;14230;45.382;10.998;2023-05-07T04:33:25;34.33;;;26.48;;
26582;SDS011;14230;45.382;10.998;2023-05-07T04:35:55;36.60;;;27.02;;
26582;SDS011;14230;45.382;10.998;2023-05-07T04:38:23;31.63;;;25.45;;
26582;SDS011;14230;45.382;10.998;2023-05-07T04:40:52;36.72;;;28.52;;
26582;SDS011;14230;45.382;10.998;2023-05-07T04:43:23;32.97;;;28.38;;
26582;SDS011;14230;45.382;10.998;2023-05-07T04:45:51;33.70;;;29.02;;
26582;SDS011;14230;45.382;10.998;2023-05-07T04:48:21;32.60;;;27.15;;
26582;SDS011;14230;45.382;10.998;2023-05-07T04:50:50;33.53;;;27.85;;
26582;SDS011;14230;45.382;10.998;2023-05-07T04:53:19;32.85;;;27.38;;
26582;SDS011;14230;45.382;10.998;2023-05-07T04:55:48;32.35;;;26.00;;
26582;SDS011;14230;45.382;10.998;2023-05-07T04:58:16;34.22;;;27.55;;
26582;SDS011;14230;45.382;10.998;2023-05-07T05:00:45;30.95;;;26.85;;
26582;SDS011;14230;45.382;10.998;2023-05-07T05:03:13;33.78;;;26.98;;
26582;SDS011;14230;45.382;10.998;2023-05-07T05:05:41;32.85;;;25.88;;
26582;SDS011;14230;45.382;10.998;2023-05-07T05:08:08;46.03;;;36.72;;
26582;SDS011;14230;45.382;10.998;2023-05-07T05:10:38;37.03;;;30.70;;
26582;SDS011;14230;45.382;10.998;2023-05-07T05:13:08;39.33;;;31.05;;
26582;SDS011;14230;45.382;10.998;2023-05-07T05:15:36;37.03;;;30.00;;
26582;SDS011;14230;45.382;10.998;2023-05-07T05:18:04;38.03;;;29.17;;
26582;SDS011;14230;45.382;10.998;2023-05-07T05:20:32;36.03;;;29.98;;
26582;SDS011;14230;45.382;10.998;2023-05-07T05:22:59;37.90;;;30.30;;
26582;SDS011;14230;45.382;10.998;2023-05-07T05:25:27;38.58;;;30.98;;
26582;SDS011;14230;45.382;10.998;2023-05-07T05:27:56;35.90;;;30.55;;
26582;SDS011;14230;45.382;10.998;2023-05-07T05:30:24;39.50;;;30.23;;
26582;SDS011;14230;45.382;10.998;2023-05-07T05:32:51;37.83;;;28.40;;
26582;SDS011;14230;45.382;10.998;2023-05-07T05:35:25;31.98;;;27.38;;
26582;SDS011;14230;45.382;10.998;2023-05-07T05:37:52;37.55;;;29.65;;
26582;SDS011;14230;45.382;10.998;2023-05-07T05:40:20;31.13;;;26.40;;
26582;SDS011;14230;45.382;10.998;2023-05-07T05:42:47;33.17;;;27.35;;
26582;SDS011;14230;45.382;10.998;2023-05-07T05:45:16;31.73;;;28.02;;
26582;SDS011;14230;45.382;10.998;2023-05-07T05:47:45;30.58;;;26.10;;
26582;SDS011;14230;45.382;10.998;2023-05-07T05:50:15;31.80;;;26.05;;
26582;SDS011;14230;45.382;10.998;2023-05-07T05:52:43;30.00;;;25.20;;
26582;SDS011;14230;45.382;10.998;2023-05-07T05:55:11;32.03;;;26.98;;
26582;SDS011;14230;45.382;10.998;2023-05-07T05:57:39;29.73;;;26.33;;
26582;SDS011;14230;45.382;10.998;2023-05-07T06:00:07;31.23;;;26.88;;
26582;SDS011;14230;45.382;10.998;2023-05-07T06:02:44;35.22;;;27.05;;
26582;SDS011;14230;45.382;10.998;2023-05-07T06:05:16;37.67;;;26.70;;
26582;SDS011;14230;45.382;10.998;2023-05-07T06:07:46;35.10;;;25.65;;
26582;SDS011;14230;45.382;10.998;2023-05-07T06:10:14;29.05;;;25.15;;
26582;SDS011;14230;45.382;10.998;2023-05-07T06:12:42;28.63;;;25.38;;
26582;SDS011;14230;45.382;10.998;2023-05-07T06:15:10;26.63;;;23.40;;
26582;SDS011;14230;45.382;10.998;2023-05-07T06:17:39;30.67;;;23.58;;
26582;SDS011;14230;45.382;10.998;2023-05-07T06:20:08;28.20;;;25.20;;
26582;SDS011;14230;45.382;10.998;2023-05-07T06:22:37;27.33;;;23.88;;
26582;SDS011;14230;45.382;10.998;2023-05-07T06:25:05;28.60;;;24.80;;
26582;SDS011;14230;45.382;10.998;2023-05-07T06:27:33;27.52;;;23.70;;
26582;SDS011;14230;45.382;10.998;2023-05-07T06:30:01;27.33;;;24.00;;
26582;SDS011;14230;45.382;10.998;2023-05-07T06:32:29;33.90;;;23.38;;
26582;SDS011;14230;45.382;10.998;2023-05-07T06:34:56;29.33;;;24.30;;
26582;SDS011;14230;45.382;10.998;2023-05-07T06:37:23;28.27;;;23.30;;
26582;SDS011;14230;45.382;10.998;2023-05-07T06:39:58;28.48;;;23.85;;
26582;SDS011;14230;45.382;10.998;2023-05-07T06:42:26;25.65;;;22.95;;
26582;SDS011;14230;45.382;10.998;2023-05-07T06:44:58;62.42;;;47.75;;
26582;SDS011;14230;45.382;10.998;2023-05-07T06:47:29;81.15;;;60.50;;
26582;SDS011;14230;45.382;10.998;2023-05-07T06:49:57;27.98;;;25.17;;
26582;SDS011;14230;45.382;10.998;2023-05-07T06:52:28;41.13;;;35.73;;
26582;SDS011;14230;45.382;10.998;2023-05-07T06:54:56;28.40;;;25.40;;
26582;SDS011;14230;45.382;10.998;2023-05-07T06:57:25;25.98;;;23.27;;
26582;SDS011;14230;45.382;10.998;2023-05-07T06:59:52;26.30;;;23.65;;
26582;SDS011;14230;45.382;10.998;2023-05-07T07:02:20;28.17;;;23.00;;
26582;SDS011;14230;45.382;10.998;2023-05-07T07:04:49;25.55;;;22.80;;
26582;SDS011;14230;45.382;10.998;2023-05-07T07:07:17;26.95;;;23.83;;
26582;SDS011;14230;45.382;10.998;2023-05-07T07:09:46;24.05;;;21.63;;
26582;SDS011;14230;45.382;10.998;2023-05-07T07:12:16;23.38;;;20.92;;
26582;SDS011;14230;45.382;10.998;2023-05-07T07:14:44;24.15;;;21.73;;
26582;SDS011;14230;45.382;10.998;2023-05-07T07:17:12;26.23;;;20.75;;
26582;SDS011;14230;45.382;10.998;2023-05-07T07:19:40;23.30;;;21.10;;
26582;SDS011;14230;45.382;10.998;2023-05-07T07:22:08;21.98;;;19.70;;
26582;SDS011;14230;45.382;10.998;2023-05-07T07:24:36;21.80;;;19.70;;
26582;SDS011;14230;45.382;10.998;2023-05-07T07:27:06;18.02;;;16.17;;
26582;SDS011;14230;45.382;10.998;2023-05-07T07:29:34;20.65;;;18.63;;
26582;SDS011;14230;45.382;10.998;2023-05-07T07:32:02;22.45;;;18.85;;
26582;SDS011;14230;45.382;10.998;2023-05-07T07:34:30;18.38;;;16.63;;
26582;SDS011;14230;45.382;10.998;2023-05-07T07:36:59;19.05;;;17.13;;
26582;SDS011;14230;45.382;10.998;2023-05-07T07:39:33;17.17;;;15.50;;
26582;SDS011;14230;45.382;10.998;2023-05-07T07:42:00;17.08;;;15.13;;
26582;SDS011;14230;45.382;10.998;2023-05-07T07:44:29;17.60;;;15.85;;
26582;SDS011;14230;45.382;10.998;2023-05-07T07:47:01;16.75;;;15.25;;
26582;SDS011;14230;45.382;10.998;2023-05-07T07:49:29;16.25;;;14.55;;
26582;SDS011;14230;45.382;10.998;2023-05-07T07:52:01;22.35;;;15.35;;
26582;SDS011;14230;45.382;10.998;2023-05-07T07:54:47;16.20;;;14.50;;
26582;SDS011;14230;45.382;10.998;2023-05-07T07:57:14;16.67;;;15.10;;
26582;SDS011;14230;45.382;10.998;2023-05-07T07:59:42;17.10;;;14.93;;
26582;SDS011;14230;45.382;10.998;2023-05-07T08:02:12;16.42;;;14.82;;
26582;SDS011;14230;45.382;10.998;2023-05-07T08:04:39;21.25;;;18.60;;
26582;SDS011;14230;45.382;10.998;2023-05-07T08:07:08;18.42;;;16.65;;
26582;SDS011;14230;45.382;10.998;2023-05-07T08:09:39;19.15;;;17.02;;
26582;SDS011;14230;45.382;10.998;2023-05-07T08:12:08;19.48;;;17.58;;
26582;SDS011;14230;45.382;10.998;2023-05-07T08:14:37;17.88;;;15.50;;
26582;SDS011;14230;45.382;10.998;2023-05-07T08:17:06;19.25;;;17.35;;
26582;SDS011;14230;45.382;10.998;2023-05-07T08:19:37;17.55;;;15.90;;
26582;SDS011;14230;45.382;10.998;2023-05-07T08:22:07;16.80;;;15.15;;
26582;SDS011;14230;45.382;10.998;2023-05-07T08:24:35;16.75;;;15.05;;
26582;SDS011;14230;45.382;10.998;2023-05-07T08:27:03;18.92;;;16.45;;
26582;SDS011;14230;45.382;10.998;2023-05-07T08:29:31;18.83;;;17.02;;
26582;SDS011;14230;45.382;10.998;2023-05-07T08:32:00;20.05;;;16.92;;
26582;SDS011;14230;45.382;10.998;2023-05-07T08:34:27;19.50;;;15.82;;
26582;SDS011;14230;45.382;10.998;2023-05-07T08:36:56;18.35;;;16.75;;
26582;SDS011;14230;45.382;10.998;2023-05-07T08:39:24;16.92;;;15.02;;
26582;SDS011;14230;45.382;10.998;2023-05-07T08:41:54;17.52;;;15.80;;
26582;SDS011;14230;45.382;10.998;2023-05-07T08:44:25;16.73;;;14.63;;
26582;SDS011;14230;45.382;10.998;2023-05-07T08:46:57;16.83;;;15.15;;
26582;SDS011;14230;45.382;10.998;2023-05-07T08:49:27;14.60;;;13.30;;
26582;SDS011;14230;45.382;10.998;2023-05-07T08:51:55;14.20;;;12.77;;
26582;SDS011;14230;45.382;10.998;2023-05-07T08:54:24;16.02;;;12.95;;
26582;SDS011;14230;45.382;10.998;2023-05-07T08:56:52;13.93;;;12.57;;
26582;SDS011;14230;45.382;10.998;2023-05-07T08:59:20;15.65;;;13.82;;
26582;SDS011;14230;45.382;10.998;2023-05-07T09:01:48;15.57;;;14.10;;
26582;SDS011;14230;45.382;10.998;2023-05-07T09:04:16;17.10;;;13.15;;
26582;SDS011;14230;45.382;10.998;2023-05-07T09:06:45;15.05;;;13.55;;
26582;SDS011;14230;45.382;10.998;2023-05-07T09:09:15;15.05;;;13.48;;
26582;SDS011;14230;45.382;10.998;2023-05-07T09:11:45;13.73;;;12.35;;
26582;SDS011;14230;45.382;10.998;2023-05-07T09:14:16;13.75;;;12.32;;
26582;SDS011;14230;45.382;10.998;2023-05-07T09:16:45;15.80;;;13.05;;
26582;SDS011;14230;45.382;10.998;2023-05-07T09:19:14;19.30;;;13.75;;
26582;SDS011;14230;45.382;10.998;2023-05-07T09:21:44;12.32;;;11.20;;
26582;SDS011;14230;45.382;10.998;2023-05-07T09:24:14;13.13;;;10.95;;
26582;SDS011;14230;45.382;10.998;2023-05-07T09:26:43;11.60;;;10.50;;
26582;SDS011;14230;45.382;10.998;2023-05-07T09:29:13;14.75;;;13.18;;
26582;SDS011;14230;45.382;10.998;2023-05-07T09:31:46;14.38;;;12.95;;
26582;SDS011;14230;45.382;10.998;2023-05-07T09:36:44;14.95;;;13.45;;
26582;SDS011;14230;45.382;10.998;2023-05-07T09:39:12;13.77;;;12.57;;
26582;SDS011;14230;45.382;10.998;2023-05-07T09:41:44;14.88;;;13.50;;
26582;SDS011;14230;45.382;10.998;2023-05-07T09:44:21;15.45;;;13.95;;
26582;SDS011;14230;45.382;10.998;2023-05-07T09:46:53;14.85;;;13.18;;
26582;SDS011;14230;45.382;10.998;2023-05-07T09:49:29;13.05;;;11.73;;
26582;SDS011;14230;45.382;10.998;2023-05-07T09:52:03;12.93;;;11.40;;
26582;SDS011;14230;45.382;10.998;2023-05-07T09:54:42;12.93;;;11.63;;
26582;SDS011;14230;45.382;10.998;2023-05-07T09:57:12;13.57;;;12.27;;
26582;SDS011;14230;45.382;10.998;2023-05-07T09:59:44;14.10;;;12.73;;
26582;SDS011;14230;45.382;10.998;2023-05-07T10:02:16;13.75;;;12.35;;
26582;SDS011;14230;45.382;10.998;2023-05-07T10:04:50;12.93;;;11.80;;
26582;SDS011;14230;45.382;10.998;2023-05-07T10:07:22;12.63;;;11.40;;
26582;SDS011;14230;45.382;10.998;2023-05-07T10:09:55;12.75;;;11.50;;
26582;SDS011;14230;45.382;10.998;2023-05-07T10:12:31;11.90;;;10.70;;
26582;SDS011;14230;45.382;10.998;2023-05-07T10:15:10;11.27;;;10.27;;
26582;SDS011;14230;45.382;10.998;2023-05-07T10:17:42;11.00;;;9.90;;
26582;SDS011;14230;45.382;10.998;2023-05-07T10:20:11;16.20;;;10.18;;
26582;SDS011;14230;45.382;10.998;2023-05-07T10:22:42;7.68;;;7.05;;
26582;SDS011;14230;45.382;10.998;2023-05-07T10:25:16;10.23;;;8.85;;
26582;SDS011;14230;45.382;10.998;2023-05-07T10:27:48;9.52;;;8.63;;
26582;SDS011;14230;45.382;10.998;2023-05-07T10:33:01;15.40;;;8.65;;
26582;SDS011;14230;45.382;10.998;2023-05-07T10:35:38;10.18;;;7.50;;
26582;SDS011;14230;45.382;10.998;2023-05-07T10:38:12;7.93;;;6.05;;
26582;SDS011;14230;45.382;10.998;2023-05-07T10:40:43;6.35;;;5.85;;
26582;SDS011;14230;45.382;10.998;2023-05-07T10:43:14;6.88;;;6.28;;
26582;SDS011;14230;45.382;10.998;2023-05-07T10:49:12;7.13;;;6.53;;
26582;SDS011;14230;45.382;10.998;2023-05-07T10:58:22;7.18;;;6.40;;
26582;SDS011;14230;45.382;10.998;2023-05-07T11:04:40;7.45;;;5.78;;
26582;SDS011;14230;45.382;10.998;2023-05-07T11:07:29;10.05;;;6.88;;
26582;SDS011;14230;45.382;10.998;2023-05-07T11:10:08;8.70;;;7.78;;
26582;SDS011;14230;45.382;10.998;2023-05-07T11:18:03;7.80;;;7.00;;
26582;SDS011;14230;45.382;10.998;2023-05-07T11:26:11;13.23;;;7.82;;
26582;SDS011;14230;45.382;10.998;2023-05-07T11:28:41;8.55;;;7.75;;
26582;SDS011;14230;45.382;10.998;2023-05-07T11:31:11;9.38;;;8.05;;
26582;SDS011;14230;45.382;10.998;2023-05-07T11:33:39;7.18;;;6.55;;
26582;SDS011;14230;45.382;10.998;2023-05-07T11:36:12;8.20;;;7.10;;
26582;SDS011;14230;45.382;10.998;2023-05-07T11:38:45;10.18;;;7.03;;
26582;SDS011;14230;45.382;10.998;2023-05-07T11:41:13;9.15;;;7.40;;
26582;SDS011;14230;45.382;10.998;2023-05-07T11:43:53;13.68;;;7.85;;
26582;SDS011;14230;45.382;10.998;2023-05-07T11:46:22;9.40;;;8.23;;
26582;SDS011;14230;45.382;10.998;2023-05-07T11:48:50;9.07;;;8.18;;
26582;SDS011;14230;45.382;10.998;2023-05-07T11:51:18;12.40;;;7.68;;
26582;SDS011;14230;45.382;10.998;2023-05-07T11:53:47;8.02;;;6.90;;
26582;SDS011;14230;45.382;10.998;2023-05-07T11:56:16;8.20;;;7.40;;
26582;SDS011;14230;45.382;10.998;2023-05-07T11:58:45;10.20;;;8.20;;
26582;SDS011;14230;45.382;10.998;2023-05-07T12:01:14;9.02;;;7.40;;
26582;SDS011;14230;45.382;10.998;2023-05-07T12:03:43;8.82;;;7.50;;
26582;SDS011;14230;45.382;10.998;2023-05-07T12:06:14;8.50;;;7.63;;
26582;SDS011;14230;45.382;10.998;2023-05-07T12:08:43;8.48;;;7.50;;
26582;SDS011;14230;45.382;10.998;2023-05-07T12:11:23;7.55;;;6.82;;
26582;SDS011;14230;45.382;10.998;2023-05-07T12:13:53;8.82;;;7.30;;
26582;SDS011;14230;45.382;10.998;2023-05-07T12:16:25;11.18;;;8.15;;
26582;SDS011;14230;45.382;10.998;2023-05-07T12:18:53;8.43;;;6.65;;
26582;SDS011;14230;45.382;10.998;2023-05-07T12:21:22;8.82;;;7.95;;
26582;SDS011;14230;45.382;10.998;2023-05-07T12:23:50;9.90;;;7.38;;
26582;SDS011;14230;45.382;10.998;2023-05-07T12:26:18;9.43;;;6.82;;
26582;SDS011;14230;45.382;10.998;2023-05-07T12:31:17;9.43;;;7.07;;
26582;SDS011;14230;45.382;10.998;2023-05-07T12:33:45;10.95;;;7.97;;
26582;SDS011;14230;45.382;10.998;2023-05-07T12:36:13;12.80;;;7.85;;
26582;SDS011;14230;45.382;10.998;2023-05-07T12:38:40;9.43;;;7.43;;
26582;SDS011;14230;45.382;10.998;2023-05-07T12:41:09;11.25;;;8.07;;
26582;SDS011;14230;45.382;10.998;2023-05-07T12:43:37;7.65;;;6.85;;
26582;SDS011;14230;45.382;10.998;2023-05-07T12:46:06;14.90;;;13.35;;
26582;SDS011;14230;45.382;10.998;2023-05-07T12:48:38;11.60;;;8.40;;
26582;SDS011;14230;45.382;10.998;2023-05-07T12:51:12;9.48;;;7.05;;
26582;SDS011;14230;45.382;10.998;2023-05-07T12:53:42;8.45;;;7.53;;
26582;SDS011;14230;45.382;10.998;2023-05-07T12:56:10;7.97;;;6.82;;
26582;SDS011;14230;45.382;10.998;2023-05-07T12:58:37;8.25;;;7.13;;
26582;SDS011;14230;45.382;10.998;2023-05-07T13:01:06;8.77;;;6.75;;
26582;SDS011;14230;45.382;10.998;2023-05-07T13:03:35;11.55;;;7.00;;
26582;SDS011;14230;45.382;10.998;2023-05-07T13:06:06;8.45;;;7.65;;
26582;SDS011;14230;45.382;10.998;2023-05-07T13:08:40;9.60;;;6.60;;
26582;SDS011;14230;45.382;10.998;2023-05-07T13:11:10;9.20;;;7.80;;
26582;SDS011;14230;45.382;10.998;2023-05-07T13:13:39;11.30;;;9.20;;
26582;SDS011;14230;45.382;10.998;2023-05-07T13:16:08;8.55;;;7.65;;
26582;SDS011;14230;45.382;10.998;2023-05-07T13:18:38;8.45;;;7.28;;
26582;SDS011;14230;45.382;10.998;2023-05-07T13:21:06;8.50;;;7.30;;
26582;SDS011;14230;45.382;10.998;2023-05-07T13:23:34;10.45;;;7.47;;
26582;SDS011;14230;45.382;10.998;2023-05-07T13:26:02;9.05;;;8.18;;
26582;SDS011;14230;45.382;10.998;2023-05-07T13:28:37;8.32;;;7.55;;
26582;SDS011;14230;45.382;10.998;2023-05-07T13:31:04;8.27;;;7.47;;
26582;SDS011;14230;45.382;10.998;2023-05-07T13:33:32;8.57;;;7.68;;
26582;SDS011;14230;45.382;10.998;2023-05-07T13:35:59;8.32;;;7.25;;
26582;SDS011;14230;45.382;10.998;2023-05-07T13:38:27;8.38;;;7.30;;
26582;SDS011;14230;45.382;10.998;2023-05-07T13:40:54;11.82;;;6.97;;
26582;SDS011;14230;45.382;10.998;2023-05-07T13:43:22;12.02;;;7.93;;
26582;SDS011;14230;45.382;10.998;2023-05-07T13:45:49;11.73;;;8.35;;
26582;SDS011;14230;45.382;10.998;2023-05-07T13:48:17;8.65;;;6.07;;
26582;SDS011;14230;45.382;10.998;2023-05-07T13:50:44;10.45;;;7.40;;
26582;SDS011;14230;45.382;10.998;2023-05-07T13:53:12;9.65;;;6.28;;
26582;SDS011;14230;45.382;10.998;2023-05-07T13:55:39;9.70;;;7.15;;
26582;SDS011;14230;45.382;10.998;2023-05-07T13:58:06;10.95;;;7.50;;
26582;SDS011;14230;45.382;10.998;2023-05-07T14:00:34;9.70;;;8.70;;
26582;SDS011;14230;45.382;10.998;2023-05-07T14:03:02;10.45;;;8.57;;
26582;SDS011;14230;45.382;10.998;2023-05-07T14:05:31;11.15;;;8.68;;
26582;SDS011;14230;45.382;10.998;2023-05-07T14:07:59;15.52;;;9.35;;
26582;SDS011;14230;45.382;10.998;2023-05-07T14:10:26;9.27;;;8.07;;
26582;SDS011;14230;45.382;10.998;2023-05-07T14:12:54;9.82;;;6.95;;
26582;SDS011;14230;45.382;10.998;2023-05-07T14:15:21;9.02;;;6.38;;
26582;SDS011;14230;45.382;10.998;2023-05-07T14:17:49;8.63;;;7.82;;
26582;SDS011;14230;45.382;10.998;2023-05-07T14:20:16;9.15;;;8.20;;
26582;SDS011;14230;45.382;10.998;2023-05-07T14:22:44;10.80;;;8.65;;
26582;SDS011;14230;45.382;10.998;2023-05-07T14:25:12;9.60;;;8.30;;
26582;SDS011;14230;45.382;10.998;2023-05-07T14:27:42;9.60;;;6.93;;
26582;SDS011;14230;45.382;10.998;2023-05-07T14:30:10;7.90;;;6.85;;
26582;SDS011;14230;45.382;10.998;2023-05-07T14:32:40;9.68;;;6.53;;
26582;SDS011;14230;45.382;10.998;2023-05-07T14:35:08;10.50;;;7.53;;
26582;SDS011;14230;45.382;10.998;2023-05-07T14:37:36;8.75;;;6.38;;
26582;SDS011;14230;45.382;10.998;2023-05-07T14:40:04;9.40;;;7.90;;
26582;SDS011;14230;45.382;10.998;2023-05-07T14:42:33;9.68;;;7.68;;
26582;SDS011;14230;45.382;10.998;2023-05-07T14:45:00;9.50;;;8.35;;
26582;SDS011;14230;45.382;10.998;2023-05-07T14:47:28;12.27;;;7.50;;
26582;SDS011;14230;45.382;10.998;2023-05-07T14:49:55;10.98;;;8.82;;
26582;SDS011;14230;45.382;10.998;2023-05-07T14:52:24;13.05;;;8.18;;
26582;SDS011;14230;45.382;10.998;2023-05-07T14:54:52;10.57;;;7.82;;
26582;SDS011;14230;45.382;10.998;2023-05-07T14:57:20;12.52;;;8.88;;
26582;SDS011;14230;45.382;10.998;2023-05-07T14:59:47;10.23;;;8.55;;
26582;SDS011;14230;45.382;10.998;2023-05-07T15:02:15;10.50;;;9.43;;
26582;SDS011;14230;45.382;10.998;2023-05-07T15:04:47;11.70;;;10.13;;